sensor_id;sensor_type;location;lat;lon;timestamp;P1;durP1;ratioP1;P2;durP2;ratioP2
59986;SDS011;46181;51.498;5.392;2023-05-07T00:03:27;5.128001;;;4.34;;
59986;SDS011;46181;51.498;5.392;2023-05-07T00:07:57;6.748001;;;4.416;;
59986;SDS011;46181;51.498;5.392;2023-05-07T00:12:27;7.256;;;4.639998;;
59986;SDS011;46181;51.498;5.392;2023-05-07T00:16:57;6.456;;;4.691999;;
59986;SDS011;46181;51.498;5.392;2023-05-07T00:21:27;6.432;;;4.836001;;
59986;SDS011;46181;51.498;5.392;2023-05-07T00:25:57;7.964001;;;5.123999;;
59986;SDS011;46181;51.498;5.392;2023-05-07T00:30:27;7.699999;;;4.880001;;
59986;SDS011;46181;51.498;5.392;2023-05-07T00:34:57;7.207999;;;5.139999;;
59986;SDS011;46181;51.498;5.392;2023-05-07T00:39:27;8.548;;;5.628;;
59986;SDS011;46181;51.498;5.392;2023-05-07T00:43:57;7.672;;;5.584;;
59986;SDS011;46181;51.498;5.392;2023-05-07T00:48:27;7.671999;;;5.147999;;
59986;SDS011;46181;51.498;5.392;2023-05-07T00:52:57;7.720001;;;5.555999;;
59986;SDS011;46181;51.498;5.392;2023-05-07T00:57:27;6.948;;;5.028;;
59986;SDS011;46181;51.498;5.392;2023-05-07T01:01:57;7.656001;;;5.832001;;
59986;SDS011;46181;51.498;5.392;2023-05-07T01:06:27;7.255999;;;5.240001;;
59986;SDS011;46181;51.498;5.392;2023-05-07T01:10:57;7.115999;;;5.908001;;
59986;SDS011;46181;51.498;5.392;2023-05-07T01:15:27;7.615999;;;5.912001;;
59986;SDS011;46181;51.498;5.392;2023-05-07T01:19:57;7.68;;;5.800001;;
59986;SDS011;46181;51.498;5.392;2023-05-07T01:24:27;8.480001;;;6.548;;
59986;SDS011;46181;51.498;5.392;2023-05-07T01:28:57;10.344;;;6.936;;
59986;SDS011;46181;51.498;5.392;2023-05-07T01:33:27;9.299999;;;6.671999;;
59986;SDS011;46181;51.498;5.392;2023-05-07T01:37:57;8.191998;;;6.492;;
59986;SDS011;46181;51.498;5.392;2023-05-07T01:42:27;8.756;;;6.611998;;
59986;SDS011;46181;51.498;5.392;2023-05-07T01:46:57;8.984;;;7.228001;;
59986;SDS011;46181;51.498;5.392;2023-05-07T01:51:27;11.016;;;7.408001;;
59986;SDS011;46181;51.498;5.392;2023-05-07T01:55:57;11.076;;;7.944001;;
59986;SDS011;46181;51.498;5.392;2023-05-07T02:00:27;10.436;;;8.435999;;
59986;SDS011;46181;51.498;5.392;2023-05-07T02:04:58;10.74;;;8.940002;;
59986;SDS011;46181;51.498;5.392;2023-05-07T02:09:27;11.228;;;8.964001;;
59986;SDS011;46181;51.498;5.392;2023-05-07T02:13:57;12.748;;;9.252;;
59986;SDS011;46181;51.498;5.392;2023-05-07T02:18:27;11.944;;;9.751999;;
59986;SDS011;46181;51.498;5.392;2023-05-07T02:22:57;12.292;;;10.04;;
59986;SDS011;46181;51.498;5.392;2023-05-07T02:27:27;12.54;;;10.088;;
59986;SDS011;46181;51.498;5.392;2023-05-07T02:31:57;14.144;;;10.372;;
59986;SDS011;46181;51.498;5.392;2023-05-07T02:36:27;12.776;;;10.34;;
59986;SDS011;46181;51.498;5.392;2023-05-07T02:40:57;14.52;;;10.748;;
59986;SDS011;46181;51.498;5.392;2023-05-07T02:45:27;13.548;;;11.44;;
59986;SDS011;46181;51.498;5.392;2023-05-07T02:49:57;13.888;;;10.5;;
59986;SDS011;46181;51.498;5.392;2023-05-07T02:54:27;15.54;;;11.456;;
59986;SDS011;46181;51.498;5.392;2023-05-07T02:58:57;16.12;;;11.116;;
59986;SDS011;46181;51.498;5.392;2023-05-07T03:03:27;12.996;;;10.844;;
59986;SDS011;46181;51.498;5.392;2023-05-07T03:07:57;15.196;;;12.076;;
59986;SDS011;46181;51.498;5.392;2023-05-07T03:12:27;14.356;;;12.312;;
59986;SDS011;46181;51.498;5.392;2023-05-07T03:16:57;17.34;;;13.016;;
59986;SDS011;46181;51.498;5.392;2023-05-07T03:21:27;16.26;;;13.008;;
59986;SDS011;46181;51.498;5.392;2023-05-07T03:25:57;18.856;;;14.072;;
59986;SDS011;46181;51.498;5.392;2023-05-07T03:30:27;17.916;;;14.536;;
59986;SDS011;46181;51.498;5.392;2023-05-07T03:34:57;21.392;;;14.2;;
59986;SDS011;46181;51.498;5.392;2023-05-07T03:39:27;18.088;;;14.044;;
59986;SDS011;46181;51.498;5.392;2023-05-07T03:43:57;20.716;;;14.768;;
59986;SDS011;46181;51.498;5.392;2023-05-07T03:48:27;20.76;;;15.572;;
59986;SDS011;46181;51.498;5.392;2023-05-07T03:52:57;20.736;;;15.032;;
59986;SDS011;46181;51.498;5.392;2023-05-07T03:57:27;19.728;;;14.692;;
59986;SDS011;46181;51.498;5.392;2023-05-07T04:01:57;18.876;;;15.092;;
59986;SDS011;46181;51.498;5.392;2023-05-07T04:06:27;20.876;;;15.392;;
59986;SDS011;46181;51.498;5.392;2023-05-07T04:11:00;20.2;;;15.04;;
59986;SDS011;46181;51.498;5.392;2023-05-07T04:15:27;20.548;;;15.336;;
59986;SDS011;46181;51.498;5.392;2023-05-07T04:19:57;24.792;;;16.68;;
59986;SDS011;46181;51.498;5.392;2023-05-07T04:24:30;20.432;;;15.44;;
59986;SDS011;46181;51.498;5.392;2023-05-07T04:28:57;22.004;;;16.556;;
59986;SDS011;46181;51.498;5.392;2023-05-07T04:33:27;20.94;;;16.552;;
59986;SDS011;46181;51.498;5.392;2023-05-07T04:37:57;20.96;;;16.656;;
59986;SDS011;46181;51.498;5.392;2023-05-07T04:42:27;22.416;;;16.764;;
59986;SDS011;46181;51.498;5.392;2023-05-07T04:46:57;22.532;;;17.012;;
59986;SDS011;46181;51.498;5.392;2023-05-07T04:51:27;22.432;;;16.604;;
59986;SDS011;46181;51.498;5.392;2023-05-07T04:56:00;21.072;;;16.912;;
59986;SDS011;46181;51.498;5.392;2023-05-07T05:00:27;21.888;;;16.508;;
59986;SDS011;46181;51.498;5.392;2023-05-07T05:04:57;24.336;;;17.144;;
59986;SDS011;46181;51.498;5.392;2023-05-07T05:09:27;21.608;;;16.888;;
59986;SDS011;46181;51.498;5.392;2023-05-07T05:13:58;22.548;;;17.768;;
59986;SDS011;46181;51.498;5.392;2023-05-07T05:18:27;21.1;;;16.944;;
59986;SDS011;46181;51.498;5.392;2023-05-07T05:22:57;21.872;;;17.208;;
59986;SDS011;46181;51.498;5.392;2023-05-07T05:27:28;21.836;;;16.772;;
59986;SDS011;46181;51.498;5.392;2023-05-07T05:31:57;21.932;;;17.332;;
59986;SDS011;46181;51.498;5.392;2023-05-07T05:36:27;22.108;;;17.8;;
59986;SDS011;46181;51.498;5.392;2023-05-07T05:40:57;22.776;;;17.808;;
59986;SDS011;46181;51.498;5.392;2023-05-07T05:45:27;24.564;;;17.204;;
59986;SDS011;46181;51.498;5.392;2023-05-07T05:49:57;21.124;;;16.46;;
59986;SDS011;46181;51.498;5.392;2023-05-07T05:54:27;21.88;;;16.844;;
59986;SDS011;46181;51.498;5.392;2023-05-07T05:58:57;23.736;;;17.28;;
59986;SDS011;46181;51.498;5.392;2023-05-07T06:03:27;22.428;;;17.144;;
59986;SDS011;46181;51.498;5.392;2023-05-07T06:07:57;19.324;;;17.084;;
59986;SDS011;46181;51.498;5.392;2023-05-07T06:12:27;20.004;;;16.236;;
59986;SDS011;46181;51.498;5.392;2023-05-07T06:16:57;18.484;;;15.972;;
59986;SDS011;46181;51.498;5.392;2023-05-07T06:21:27;21.644;;;16.404;;
59986;SDS011;46181;51.498;5.392;2023-05-07T06:25:57;17.888;;;15.384;;
59986;SDS011;46181;51.498;5.392;2023-05-07T06:30:27;18.472;;;14.92;;
59986;SDS011;46181;51.498;5.392;2023-05-07T06:34:57;19.288;;;15.748;;
59986;SDS011;46181;51.498;5.392;2023-05-07T06:39:27;18.436;;;15.864;;
59986;SDS011;46181;51.498;5.392;2023-05-07T06:43:57;19.876;;;15.08;;
59986;SDS011;46181;51.498;5.392;2023-05-07T06:48:27;18.488;;;14.9;;
59986;SDS011;46181;51.498;5.392;2023-05-07T06:52:57;20.208;;;15.528;;
59986;SDS011;46181;51.498;5.392;2023-05-07T06:57:27;17.708;;;14.172;;
59986;SDS011;46181;51.498;5.392;2023-05-07T07:01:57;18.068;;;14.224;;
59986;SDS011;46181;51.498;5.392;2023-05-07T07:06:27;16.556;;;13.364;;
59986;SDS011;46181;51.498;5.392;2023-05-07T07:10:58;17.228;;;13.284;;
59986;SDS011;46181;51.498;5.392;2023-05-07T07:15:27;17.432;;;13.552;;
59986;SDS011;46181;51.498;5.392;2023-05-07T07:19:57;17.168;;;13.552;;
59986;SDS011;46181;51.498;5.392;2023-05-07T07:24:27;16.188;;;13.424;;
59986;SDS011;46181;51.498;5.392;2023-05-07T07:28:57;17.656;;;13.248;;
59986;SDS011;46181;51.498;5.392;2023-05-07T07:33:27;17.6;;;13.524;;
59986;SDS011;46181;51.498;5.392;2023-05-07T07:37:58;15.94;;;13.16;;
59986;SDS011;46181;51.498;5.392;2023-05-07T07:42:27;18.208;;;13.712;;
59986;SDS011;46181;51.498;5.392;2023-05-07T07:46:57;16.532;;;12.856;;
59986;SDS011;46181;51.498;5.392;2023-05-07T07:51:27;14.72;;;12.98;;
59986;SDS011;46181;51.498;5.392;2023-05-07T07:55:57;15.528;;;12.808;;
59986;SDS011;46181;51.498;5.392;2023-05-07T08:00:27;16.568;;;12.844;;
59986;SDS011;46181;51.498;5.392;2023-05-07T08:04:57;17.788;;;12.212;;
59986;SDS011;46181;51.498;5.392;2023-05-07T08:09:27;15.244;;;12.252;;
59986;SDS011;46181;51.498;5.392;2023-05-07T08:13:57;14.876;;;12.116;;
59986;SDS011;46181;51.498;5.392;2023-05-07T08:18:28;15.788;;;12.396;;
59986;SDS011;46181;51.498;5.392;2023-05-07T08:22:58;15.808;;;12.272;;
59986;SDS011;46181;51.498;5.392;2023-05-07T08:27:27;14.892;;;11.76;;
59986;SDS011;46181;51.498;5.392;2023-05-07T08:31:57;13.508;;;11.208;;
59986;SDS011;46181;51.498;5.392;2023-05-07T08:36:27;14.068;;;10.852;;
59986;SDS011;46181;51.498;5.392;2023-05-07T08:40:57;14.572;;;11.188;;
59986;SDS011;46181;51.498;5.392;2023-05-07T08:45:28;13.348;;;11.044;;
59986;SDS011;46181;51.498;5.392;2023-05-07T08:49:57;14.472;;;12.076;;
59986;SDS011;46181;51.498;5.392;2023-05-07T08:54:27;14.44;;;12.064;;
59986;SDS011;46181;51.498;5.392;2023-05-07T08:58:57;16.732;;;11.644;;
59986;SDS011;46181;51.498;5.392;2023-05-07T09:03:27;13.232;;;11.144;;
59986;SDS011;46181;51.498;5.392;2023-05-07T09:07:58;15.72;;;12.032;;
59986;SDS011;46181;51.498;5.392;2023-05-07T09:12:27;14.208;;;11.936;;
59986;SDS011;46181;51.498;5.392;2023-05-07T09:16:57;15.028;;;12.792;;
59986;SDS011;46181;51.498;5.392;2023-05-07T09:21:27;15.232;;;12.708;;
59986;SDS011;46181;51.498;5.392;2023-05-07T09:25:58;14.48;;;12.964;;
59986;SDS011;46181;51.498;5.392;2023-05-07T09:30:31;15.344;;;12.948;;
59986;SDS011;46181;51.498;5.392;2023-05-07T09:34:57;18.152;;;12.588;;
59986;SDS011;46181;51.498;5.392;2023-05-07T09:39:27;16.428;;;12.38;;
59986;SDS011;46181;51.498;5.392;2023-05-07T09:43:58;14.944;;;12.832;;
59986;SDS011;46181;51.498;5.392;2023-05-07T09:48:28;14.612;;;12.64;;
59986;SDS011;46181;51.498;5.392;2023-05-07T09:52:58;16.584;;;13.116;;
59986;SDS011;46181;51.498;5.392;2023-05-07T09:57:28;15.4;;;12.964;;
59986;SDS011;46181;51.498;5.392;2023-05-07T10:01:58;14.564;;;12.816;;
59986;SDS011;46181;51.498;5.392;2023-05-07T10:06:28;14.956;;;12.948;;
59986;SDS011;46181;51.498;5.392;2023-05-07T10:10:58;16.024;;;12.784;;
59986;SDS011;46181;51.498;5.392;2023-05-07T10:15:28;14.704;;;13.188;;
59986;SDS011;46181;51.498;5.392;2023-05-07T10:19:58;14.372;;;12.644;;
59986;SDS011;46181;51.498;5.392;2023-05-07T10:24:29;14.924;;;12.964;;
59986;SDS011;46181;51.498;5.392;2023-05-07T10:28:58;12.86;;;11.528;;
59986;SDS011;46181;51.498;5.392;2023-05-07T10:33:28;14.064;;;12.256;;
59986;SDS011;46181;51.498;5.392;2023-05-07T10:37:58;14.94;;;12.2;;
59986;SDS011;46181;51.498;5.392;2023-05-07T10:42:28;13.432;;;11.348;;
59986;SDS011;46181;51.498;5.392;2023-05-07T10:47:08;14.736;;;11.932;;
59986;SDS011;46181;51.498;5.392;2023-05-07T10:51:28;13.028;;;11.696;;
59986;SDS011;46181;51.498;5.392;2023-05-07T11:09:28;11.992;;;10.352;;
59986;SDS011;46181;51.498;5.392;2023-05-07T11:13:58;12.192;;;10.852;;
59986;SDS011;46181;51.498;5.392;2023-05-07T11:18:30;12.184;;;10.608;;
59986;SDS011;46181;51.498;5.392;2023-05-07T11:22:58;13.016;;;10.74;;
59986;SDS011;46181;51.498;5.392;2023-05-07T11:27:28;10.928;;;8.632;;
59986;SDS011;46181;51.498;5.392;2023-05-07T11:31:58;10.684;;;8.264;;
59986;SDS011;46181;51.498;5.392;2023-05-07T11:36:31;12.108;;;9.428;;
59986;SDS011;46181;51.498;5.392;2023-05-07T11:40:58;10.3;;;7.191999;;
59986;SDS011;46181;51.498;5.392;2023-05-07T11:45:28;9.648;;;7.755999;;
59986;SDS011;46181;51.498;5.392;2023-05-07T11:50:02;8.812;;;7.739999;;
59986;SDS011;46181;51.498;5.392;2023-05-07T11:54:28;10.208;;;7.992001;;
59986;SDS011;46181;51.498;5.392;2023-05-07T11:58:58;9.556001;;;7.868001;;
59986;SDS011;46181;51.498;5.392;2023-05-07T12:03:28;10.408;;;8.039999;;
59986;SDS011;46181;51.498;5.392;2023-05-07T12:07:59;10.124;;;7.564002;;
59986;SDS011;46181;51.498;5.392;2023-05-07T12:12:28;11.468;;;8.160001;;
59986;SDS011;46181;51.498;5.392;2023-05-07T12:16:58;10.5;;;7.860001;;
59986;SDS011;46181;51.498;5.392;2023-05-07T12:21:28;8.616;;;7.08;;
59986;SDS011;46181;51.498;5.392;2023-05-07T12:25:58;12.408;;;10.22;;
59986;SDS011;46181;51.498;5.392;2023-05-07T12:30:28;11.328;;;7.304001;;
59986;SDS011;46181;51.498;5.392;2023-05-07T12:34:58;5.688;;;3.192;;
59986;SDS011;46181;51.498;5.392;2023-05-07T12:39:28;5.660001;;;2.099999;;
59986;SDS011;46181;51.498;5.392;2023-05-07T12:43:59;7.567999;;;1.608;;
59986;SDS011;46181;51.498;5.392;2023-05-07T12:48:28;17.912;;;4.256;;
59986;SDS011;46181;51.498;5.392;2023-05-07T12:52:58;11.712;;;2.976;;
59986;SDS011;46181;51.498;5.392;2023-05-07T12:57:28;9.18;;;2.564;;
59986;SDS011;46181;51.498;5.392;2023-05-07T13:01:58;12.688;;;4.324001;;
59986;SDS011;46181;51.498;5.392;2023-05-07T13:06:28;7.115999;;;2.832;;
59986;SDS011;46181;51.498;5.392;2023-05-07T13:10:58;6.252;;;2.824;;
59986;SDS011;46181;51.498;5.392;2023-05-07T13:15:28;4.296001;;;2.896;;
59986;SDS011;46181;51.498;5.392;2023-05-07T13:19:58;0.528;;;0.192;;
59986;SDS011;46181;51.498;5.392;2023-05-07T13:24:28;0;;;0;;
59986;SDS011;46181;51.498;5.392;2023-05-07T13:28:58;0;;;0;;
59986;SDS011;46181;51.498;5.392;2023-05-07T13:33:28;0;;;0;;
59986;SDS011;46181;51.498;5.392;2023-05-07T13:37:58;0.124;;;0.124;;
59986;SDS011;46181;51.498;5.392;2023-05-07T13:42:28;0;;;0;;
59986;SDS011;46181;51.498;5.392;2023-05-07T13:46:58;0.056;;;0.056;;
59986;SDS011;46181;51.498;5.392;2023-05-07T13:51:28;0;;;0;;
59986;SDS011;46181;51.498;5.392;2023-05-07T13:55:58;0;;;0;;
59986;SDS011;46181;51.498;5.392;2023-05-07T14:00:28;0.1;;;0.1;;
59986;SDS011;46181;51.498;5.392;2023-05-07T14:04:58;0.1;;;0.1;;
59986;SDS011;46181;51.498;5.392;2023-05-07T14:09:28;0;;;0;;
59986;SDS011;46181;51.498;5.392;2023-05-07T14:13:58;0;;;0;;
59986;SDS011;46181;51.498;5.392;2023-05-07T14:18:28;0.044;;;0.024;;
59986;SDS011;46181;51.498;5.392;2023-05-07T14:22:58;0.08;;;0.08;;
59986;SDS011;46181;51.498;5.392;2023-05-07T14:27:28;0;;;0;;
59986;SDS011;46181;51.498;5.392;2023-05-07T14:31:58;0;;;0;;
59986;SDS011;46181;51.498;5.392;2023-05-07T14:36:28;0.1;;;0.1;;
59986;SDS011;46181;51.498;5.392;2023-05-07T14:40:58;9.379999;;;8.199999;;
59986;SDS011;46181;51.498;5.392;2023-05-07T14:45:28;10.876;;;8.724;;
59986;SDS011;46181;51.498;5.392;2023-05-07T14:49:58;10.728;;;9.364001;;
59986;SDS011;46181;51.498;5.392;2023-05-07T14:54:28;10.528;;;9.151999;;
59986;SDS011;46181;51.498;5.392;2023-05-07T14:58:58;10.452;;;9.272001;;
59986;SDS011;46181;51.498;5.392;2023-05-07T15:03:28;14.548;;;11.472;;
59986;SDS011;46181;51.498;5.392;2023-05-07T15:07:58;17.604;;;12.6;;
59986;SDS011;46181;51.498;5.392;2023-05-07T15:12:28;15.652;;;13.88;;
59986;SDS011;46181;51.498;5.392;2023-05-07T15:16:58;16.852;;;14.408;;
59986;SDS011;46181;51.498;5.392;2023-05-07T15:21:28;19.216;;;14.864;;
59986;SDS011;46181;51.498;5.392;2023-05-07T15:25:58;16.564;;;13.248;;
59986;SDS011;46181;51.498;5.392;2023-05-07T15:30:28;16.332;;;12.52;;
59986;SDS011;46181;51.498;5.392;2023-05-07T15:34:58;15.648;;;12.444;;
59986;SDS011;46181;51.498;5.392;2023-05-07T15:39:28;15.096;;;11.824;;
59986;SDS011;46181;51.498;5.392;2023-05-07T15:43:58;13.98;;;11.56;;
59986;SDS011;46181;51.498;5.392;2023-05-07T15:48:28;14.084;;;10.612;;
59986;SDS011;46181;51.498;5.392;2023-05-07T15:52:58;11.748;;;10.224;;
59986;SDS011;46181;51.498;5.392;2023-05-07T15:57:28;12.856;;;10.524;;
59986;SDS011;46181;51.498;5.392;2023-05-07T16:01:58;11.68;;;8.896001;;
59986;SDS011;46181;51.498;5.392;2023-05-07T16:06:28;10.012;;;8.931999;;
59986;SDS011;46181;51.498;5.392;2023-05-07T16:10:58;10.624;;;8.632001;;
59986;SDS011;46181;51.498;5.392;2023-05-07T16:15:28;10.504;;;8.252;;
59986;SDS011;46181;51.498;5.392;2023-05-07T16:19:58;9.744;;;8.456;;
59986;SDS011;46181;51.498;5.392;2023-05-07T16:24:28;9.480001;;;8.464002;;
59986;SDS011;46181;51.498;5.392;2023-05-07T16:28:58;21.144;;;18.696;;
59986;SDS011;46181;51.498;5.392;2023-05-07T16:33:28;10.196;;;7.767999;;
59986;SDS011;46181;51.498;5.392;2023-05-07T16:37:58;9.256;;;7.723999;;
59986;SDS011;46181;51.498;5.392;2023-05-07T16:42:28;10.004;;;8.876001;;
59986;SDS011;46181;51.498;5.392;2023-05-07T16:46:58;10.528;;;8.556001;;
59986;SDS011;46181;51.498;5.392;2023-05-07T16:51:28;9.792;;;8.788;;
59986;SDS011;46181;51.498;5.392;2023-05-07T16:55:58;10.58;;;8.699999;;
59986;SDS011;46181;51.498;5.392;2023-05-07T17:00:28;9.455999;;;7.828001;;
59986;SDS011;46181;51.498;5.392;2023-05-07T17:04:58;7.660001;;;6.336001;;
59986;SDS011;46181;51.498;5.392;2023-05-07T17:09:28;6.012;;;5.087999;;
59986;SDS011;46181;51.498;5.392;2023-05-07T17:13:58;7.172001;;;5.960001;;
59986;SDS011;46181;51.498;5.392;2023-05-07T17:18:28;7.572;;;5.679999;;
59986;SDS011;46181;51.498;5.392;2023-05-07T17:22:58;8.552001;;;6.772;;
59986;SDS011;46181;51.498;5.392;2023-05-07T17:27:28;10.328;;;7.988001;;
59986;SDS011;46181;51.498;5.392;2023-05-07T17:31:58;7.631999;;;6.52;;
59986;SDS011;46181;51.498;5.392;2023-05-07T17:36:28;5.087999;;;4.32;;
59986;SDS011;46181;51.498;5.392;2023-05-07T17:40:58;6.104;;;4.452;;
59986;SDS011;46181;51.498;5.392;2023-05-07T17:45:28;5.376001;;;4.059999;;
59986;SDS011;46181;51.498;5.392;2023-05-07T17:49:58;5.836;;;4.507999;;
59986;SDS011;46181;51.498;5.392;2023-05-07T17:54:28;4.964;;;3.832001;;
59986;SDS011;46181;51.498;5.392;2023-05-07T17:58:58;4.78;;;3.808001;;
59986;SDS011;46181;51.498;5.392;2023-05-07T18:03:28;5.452;;;4.524;;
59986;SDS011;46181;51.498;5.392;2023-05-07T18:07:58;5.348;;;4.528;;
59986;SDS011;46181;51.498;5.392;2023-05-07T18:12:28;5.4;;;4.844;;
59986;SDS011;46181;51.498;5.392;2023-05-07T18:16:58;7.235999;;;5.012;;
59986;SDS011;46181;51.498;5.392;2023-05-07T18:21:28;6.255999;;;5.159999;;
59986;SDS011;46181;51.498;5.392;2023-05-07T18:25:58;7.680001;;;5.220001;;
59986;SDS011;46181;51.498;5.392;2023-05-07T18:30:28;5.784;;;5.123999;;
59986;SDS011;46181;51.498;5.392;2023-05-07T18:34:58;6.104001;;;4.948;;
59986;SDS011;46181;51.498;5.392;2023-05-07T18:39:28;6.792001;;;5.119999;;
59986;SDS011;46181;51.498;5.392;2023-05-07T18:43:58;7.848001;;;5.123999;;
59986;SDS011;46181;51.498;5.392;2023-05-07T18:48:28;6.155999;;;5.099999;;
59986;SDS011;46181;51.498;5.392;2023-05-07T18:52:58;6.664;;;5.872;;
59986;SDS011;46181;51.498;5.392;2023-05-07T18:57:28;11.904;;;5.151999;;
59986;SDS011;46181;51.498;5.392;2023-05-07T19:01:58;6.884;;;5.608;;
59986;SDS011;46181;51.498;5.392;2023-05-07T19:06:28;6.672001;;;5.648;;
59986;SDS011;46181;51.498;5.392;2023-05-07T19:10:58;6.728001;;;5.752001;;
59986;SDS011;46181;51.498;5.392;2023-05-07T19:15:28;7.420001;;;5.836001;;
59986;SDS011;46181;51.498;5.392;2023-05-07T19:19:58;6.552;;;5.708;;
59986;SDS011;46181;51.498;5.392;2023-05-07T19:24:28;8.067999;;;5.980001;;
59986;SDS011;46181;51.498;5.392;2023-05-07T19:28:58;7.175999;;;6.46;;
59986;SDS011;46181;51.498;5.392;2023-05-07T19:33:28;8.840001;;;7.211999;;
59986;SDS011;46181;51.498;5.392;2023-05-07T19:37:58;9.368;;;7.064;;
59986;SDS011;46181;51.498;5.392;2023-05-07T19:42:28;8.992001;;;7.316;;
59986;SDS011;46181;51.498;5.392;2023-05-07T19:46:58;8.088001;;;7.159999;;
59986;SDS011;46181;51.498;5.392;2023-05-07T19:51:28;10.404;;;7.524;;
59986;SDS011;46181;51.498;5.392;2023-05-07T19:56:08;10.18;;;7.464001;;
59986;SDS011;46181;51.498;5.392;2023-05-07T20:00:28;9.579999;;;7.699999;;
59986;SDS011;46181;51.498;5.392;2023-05-07T20:04:58;9.668;;;7.799999;;
59986;SDS011;46181;51.498;5.392;2023-05-07T20:09:28;8.004001;;;7.160001;;
59986;SDS011;46181;51.498;5.392;2023-05-07T20:13:58;9.240001;;;7.544;;
59986;SDS011;46181;51.498;5.392;2023-05-07T20:18:28;8.023999;;;6.456002;;
59986;SDS011;46181;51.498;5.392;2023-05-07T20:22:58;8.636;;;7.135999;;
59986;SDS011;46181;51.498;5.392;2023-05-07T20:27:28;8.932001;;;7.211999;;
59986;SDS011;46181;51.498;5.392;2023-05-07T20:31:58;9.292;;;7.940001;;
59986;SDS011;46181;51.498;5.392;2023-05-07T20:36:28;9.56;;;8.024;;
59986;SDS011;46181;51.498;5.392;2023-05-07T20:40:58;8.772;;;7.420001;;
59986;SDS011;46181;51.498;5.392;2023-05-07T20:45:28;9.672001;;;7.424;;
59986;SDS011;46181;51.498;5.392;2023-05-07T20:49:58;8.784;;;7.524001;;
59986;SDS011;46181;51.498;5.392;2023-05-07T20:54:28;9.964;;;8.032001;;
59986;SDS011;46181;51.498;5.392;2023-05-07T20:58:58;11.22;;;8.444001;;
59986;SDS011;46181;51.498;5.392;2023-05-07T21:03:28;12.512;;;8.424;;
59986;SDS011;46181;51.498;5.392;2023-05-07T21:07:58;9.995998;;;8.247999;;
59986;SDS011;46181;51.498;5.392;2023-05-07T21:12:28;10.708;;;8.924;;
59986;SDS011;46181;51.498;5.392;2023-05-07T21:16:58;10.244;;;9.028002;;
59986;SDS011;46181;51.498;5.392;2023-05-07T21:21:28;12.064;;;9.24;;
59986;SDS011;46181;51.498;5.392;2023-05-07T21:25:58;11.736;;;9.064;;
59986;SDS011;46181;51.498;5.392;2023-05-07T21:30:28;12.4;;;9.436;;
59986;SDS011;46181;51.498;5.392;2023-05-07T21:34:58;12.616;;;9.360001;;
59986;SDS011;46181;51.498;5.392;2023-05-07T21:39:28;11.548;;;9.404;;
59986;SDS011;46181;51.498;5.392;2023-05-07T21:43:58;11.192;;;9.052002;;
59986;SDS011;46181;51.498;5.392;2023-05-07T21:48:28;12.596;;;9.592001;;
59986;SDS011;46181;51.498;5.392;2023-05-07T21:52:58;12.38;;;10.368;;
59986;SDS011;46181;51.498;5.392;2023-05-07T21:57:28;13.112;;;10.3;;
59986;SDS011;46181;51.498;5.392;2023-05-07T22:01:58;11.804;;;10.4;;
59986;SDS011;46181;51.498;5.392;2023-05-07T22:06:28;12.628;;;10.504;;
59986;SDS011;46181;51.498;5.392;2023-05-07T22:10:58;12.696;;;9.763998;;
59986;SDS011;46181;51.498;5.392;2023-05-07T22:15:28;12.348;;;10.096;;
59986;SDS011;46181;51.498;5.392;2023-05-07T22:19:58;13.66;;;10.512;;
59986;SDS011;46181;51.498;5.392;2023-05-07T22:24:28;11.764;;;10.312;;
59986;SDS011;46181;51.498;5.392;2023-05-07T22:28:58;12.392;;;10.6;;
59986;SDS011;46181;51.498;5.392;2023-05-07T22:33:28;14.432;;;11.02;;
59986;SDS011;46181;51.498;5.392;2023-05-07T22:37:58;11.888;;;10.284;;
59986;SDS011;46181;51.498;5.392;2023-05-07T22:42:28;12.548;;;10.292;;
59986;SDS011;46181;51.498;5.392;2023-05-07T22:46:58;11.88;;;10.64;;
59986;SDS011;46181;51.498;5.392;2023-05-07T22:51:28;13.616;;;10.404;;
59986;SDS011;46181;51.498;5.392;2023-05-07T22:55:58;13.376;;;11.064;;
59986;SDS011;46181;51.498;5.392;2023-05-07T23:00:28;12.12;;;10.756;;
59986;SDS011;46181;51.498;5.392;2023-05-07T23:05:00;11.856;;;10.576;;
59986;SDS011;46181;51.498;5.392;2023-05-07T23:09:28;13.78;;;11.828;;
59986;SDS011;46181;51.498;5.392;2023-05-07T23:13:58;13.016;;;11.488;;
59986;SDS011;46181;51.498;5.392;2023-05-07T23:18:28;14.9;;;11.508;;
59986;SDS011;46181;51.498;5.392;2023-05-07T23:22:58;13.14;;;11.692;;
59986;SDS011;46181;51.498;5.392;2023-05-07T23:27:28;13.548;;;11.696;;
59986;SDS011;46181;51.498;5.392;2023-05-07T23:31:58;14.252;;;11.736;;
59986;SDS011;46181;51.498;5.392;2023-05-07T23:36:28;13.548;;;11.844;;
59986;SDS011;46181;51.498;5.392;2023-05-07T23:40:58;15.676;;;12.452;;
59986;SDS011;46181;51.498;5.392;2023-05-07T23:45:28;13.74;;;12.284;;
59986;SDS011;46181;51.498;5.392;2023-05-07T23:49:58;15.4;;;12.912;;
59986;SDS011;46181;51.498;5.392;2023-05-07T23:54:28;16.28;;;13.004;;
59986;SDS011;46181;51.498;5.392;2023-05-07T23:58:58;14.744;;;13.088;;
